createdAt,value
2023-05-24T00:00:47.522Z,101504.38
2023-05-24T00:03:18.795Z,101499.50
2023-05-24T00:06:00.532Z,101502.34
2023-05-24T00:08:43.196Z,101503.16
2023-05-24T00:11:12.017Z,101504.75
2023-05-24T00:13:40.365Z,101499.56
2023-05-24T00:16:08.670Z,101493.78
2023-05-24T00:18:41.033Z,101494.34
2023-05-24T00:21:11.933Z,101492.19
2023-05-24T00:23:41.969Z,101482.31
2023-05-24T00:26:10.506Z,101481.66
2023-05-24T00:28:38.778Z,101489.31
2023-05-24T00:31:08.292Z,101483.00
2023-05-24T00:33:38.744Z,101479.31
2023-05-24T00:36:11.470Z,101474.94
2023-05-24T00:38:39.823Z,101476.59
2023-05-24T00:41:08.217Z,101484.31
2023-05-24T00:43:37.114Z,101482.03
2023-05-24T00:46:14.665Z,101472.78
2023-05-24T00:48:46.034Z,101481.91
2023-05-24T00:51:16.706Z,101479.13
2023-05-24T00:53:46.837Z,101470.97
2023-05-24T00:56:18.531Z,101473.63
2023-05-24T00:58:47.963Z,101478.72
2023-05-24T01:01:16.423Z,101472.72
2023-05-24T01:03:46.244Z,101474.34
2023-05-24T01:06:17.633Z,101463.00
2023-05-24T01:08:56.124Z,101464.47
2023-05-24T01:11:30.249Z,101475.09
2023-05-24T01:14:03.972Z,101475.69
2023-05-24T01:16:37.982Z,101478.16
2023-05-24T01:19:13.247Z,101481.63
2023-05-24T01:21:50.572Z,101479.41
2023-05-24T01:24:26.303Z,101481.97
2023-05-24T01:27:03.264Z,101477.53
2023-05-24T01:29:32.172Z,101466.50
2023-05-24T01:32:00.502Z,101466.50
2023-05-24T01:34:28.873Z,101457.78
2023-05-24T01:36:57.348Z,101455.06
2023-05-24T01:39:28.414Z,101452.34
2023-05-24T01:42:01.088Z,101453.63
2023-05-24T01:44:37.704Z,101443.50
2023-05-24T01:47:12.762Z,101439.03
2023-05-24T01:49:46.199Z,101440.84
2023-05-24T01:52:17.336Z,101443.94
2023-05-24T01:54:50.556Z,101439.91
2023-05-24T01:57:20.647Z,101437.78
2023-05-24T01:59:51.026Z,101437.97
2023-05-24T02:02:22.587Z,101442.63
2023-05-24T02:04:51.125Z,101440.59
2023-05-24T02:07:19.354Z,101455.38
2023-05-24T02:09:50.937Z,101448.00
2023-05-24T02:12:19.147Z,101452.03
2023-05-24T02:14:51.016Z,101447.81
2023-05-24T02:17:20.704Z,101456.69
2023-05-24T02:19:49.019Z,101449.78
2023-05-24T02:22:17.525Z,101450.19
2023-05-24T02:24:49.376Z,101449.53
2023-05-24T02:27:17.728Z,101450.97
2023-05-24T02:29:45.980Z,101448.00
2023-05-24T02:32:17.074Z,101444.47
2023-05-24T02:34:46.747Z,101443.75
2023-05-24T02:37:15.178Z,101443.13
2023-05-24T02:39:43.886Z,101425.84
2023-05-24T02:42:12.132Z,101442.13
2023-05-24T02:44:42.462Z,101449.88
2023-05-24T02:47:10.823Z,101441.63
2023-05-24T02:49:40.164Z,101440.47
2023-05-24T02:52:11.559Z,101439.97
2023-05-24T02:54:40.194Z,101443.19
2023-05-24T02:57:11.696Z,101446.41
2023-05-24T03:00:00.425Z,101449.19
2023-05-24T03:02:30.078Z,101437.50
2023-05-24T03:04:58.411Z,101444.25
2023-05-24T03:07:28.513Z,101447.06
2023-05-24T03:09:58.140Z,101439.59
2023-05-24T03:12:26.600Z,101437.69
2023-05-24T03:14:58.228Z,101441.22
2023-05-24T03:17:26.580Z,101426.81
2023-05-24T03:19:55.170Z,101425.38
2023-05-24T03:22:23.540Z,101426.00
2023-05-24T03:24:53.424Z,101425.63
2023-05-24T03:27:25.700Z,101427.66
2023-05-24T03:29:54.120Z,101433.75
2023-05-24T03:32:22.510Z,101436.97
2023-05-24T03:34:51.004Z,101437.06
2023-05-24T03:37:19.456Z,101435.97
2023-05-24T03:39:47.848Z,101444.94
2023-05-24T03:42:17.713Z,101444.63
2023-05-24T03:44:46.244Z,101448.06
2023-05-24T03:47:14.854Z,101441.00
2023-05-24T03:49:45.817Z,101442.16
2023-05-24T03:52:14.310Z,101455.13
2023-05-24T03:54:42.776Z,101451.19
2023-05-24T03:57:11.069Z,101455.81
2023-05-24T03:59:43.353Z,101466.38
2023-05-24T04:02:11.803Z,101461.97
2023-05-24T04:04:40.728Z,101459.19
2023-05-24T04:07:11.918Z,101459.16
2023-05-24T04:09:40.724Z,101465.28
2023-05-24T04:12:09.194Z,101463.56
2023-05-24T04:14:37.496Z,101457.50
2023-05-24T04:17:07.878Z,101455.81
2023-05-24T04:19:36.538Z,101455.22
2023-05-24T04:22:07.715Z,101461.75
2023-05-24T04:24:36.709Z,101454.84
2023-05-24T04:27:09.914Z,101453.06
2023-05-24T04:29:38.232Z,101459.16
2023-05-24T04:32:10.105Z,101462.38
2023-05-24T04:34:42.988Z,101462.94
2023-05-24T04:37:11.884Z,101469.47
2023-05-24T04:39:43.258Z,101472.00
2023-05-24T04:42:12.270Z,101474.59
2023-05-24T04:44:41.672Z,101467.00
2023-05-24T04:47:13.084Z,101475.22
2023-05-24T04:49:41.795Z,101480.75
2023-05-24T04:52:10.465Z,101477.59
2023-05-24T04:54:39.657Z,101479.31
2023-05-24T04:57:08.721Z,101471.03
2023-05-24T04:59:37.051Z,101473.06
2023-05-24T05:02:05.750Z,101465.81
2023-05-24T05:04:35.398Z,101470.03
2023-05-24T05:07:04.323Z,101474.50
2023-05-24T05:09:35.262Z,101462.84
2023-05-24T05:12:03.761Z,101463.72
2023-05-24T05:14:32.758Z,101474.16
2023-05-24T05:17:01.367Z,101481.28
2023-05-24T05:19:29.793Z,101484.56
2023-05-24T05:21:59.779Z,101491.88
2023-05-24T05:24:28.085Z,101503.94
2023-05-24T05:26:56.451Z,101495.38
2023-05-24T05:29:27.820Z,101487.34
2023-05-24T05:31:56.223Z,101480.84
2023-05-24T05:34:24.790Z,101490.19
2023-05-24T05:36:53.325Z,101486.06
2023-05-24T05:39:23.246Z,101485.78
2023-05-24T05:41:59.390Z,101487.41
2023-05-24T05:44:27.811Z,101486.34
2023-05-24T05:46:57.707Z,101480.88
2023-05-24T05:49:26.339Z,101485.50
2023-05-24T05:51:55.935Z,101484.44
2023-05-24T05:54:27.897Z,101480.22
2023-05-24T05:56:56.565Z,101482.78
2023-05-24T05:59:27.290Z,101478.84
2023-05-24T06:01:58.848Z,101482.78
2023-05-24T06:04:27.571Z,101479.66
2023-05-24T06:06:59.909Z,101474.16
2023-05-24T06:09:29.748Z,101477.38
2023-05-24T06:11:58.437Z,101487.03
2023-05-24T06:14:27.105Z,101486.22
2023-05-24T06:16:56.275Z,101490.53
2023-05-24T06:19:30.073Z,101496.88
2023-05-24T06:22:01.461Z,101491.38
2023-05-24T06:24:31.232Z,101506.72
2023-05-24T06:26:59.845Z,101496.81
2023-05-24T06:29:28.154Z,101500.00
2023-05-24T06:31:56.724Z,101491.03
2023-05-24T06:34:25.664Z,101496.06
2023-05-24T06:36:54.073Z,101503.34
2023-05-24T06:39:25.022Z,101498.47
2023-05-24T06:41:54.912Z,101504.59
2023-05-24T06:44:25.337Z,101502.09
2023-05-24T06:46:56.519Z,101498.16
2023-05-24T06:49:24.909Z,101505.47
2023-05-24T06:51:53.226Z,101498.50
2023-05-24T06:54:22.792Z,101495.56
2023-05-24T06:56:51.762Z,101500.91
2023-05-24T06:59:21.968Z,101495.94
2023-05-24T07:01:53.772Z,101501.34
2023-05-24T07:04:24.298Z,101498.03
2023-05-24T07:06:52.912Z,101496.09
2023-05-24T07:09:24.802Z,101501.50
2023-05-24T07:11:53.574Z,101490.81
2023-05-24T07:14:26.244Z,101491.88
2023-05-24T07:16:57.318Z,101490.41
2023-05-24T07:19:29.145Z,101497.59
2023-05-24T07:21:57.928Z,101496.59
2023-05-24T07:24:26.579Z,101491.69
2023-05-24T07:26:56.607Z,101494.94
2023-05-24T07:29:26.845Z,101495.84
2023-05-24T07:31:58.277Z,101493.47
2023-05-24T07:34:30.050Z,101489.31
2023-05-24T07:37:01.305Z,101497.91
2023-05-24T07:39:29.643Z,101506.44
2023-05-24T07:41:58.013Z,101504.38
2023-05-24T07:44:27.870Z,101502.56
2023-05-24T07:47:04.551Z,101500.84
2023-05-24T07:49:33.586Z,101504.66
2023-05-24T07:52:03.892Z,101499.22
2023-05-24T07:54:32.344Z,101502.97
2023-05-24T07:57:02.079Z,101498.91
2023-05-24T07:59:36.510Z,101493.38
2023-05-24T08:02:05.791Z,101500.53
2023-05-24T08:04:34.078Z,101497.56
2023-05-24T08:07:03.354Z,101507.16
2023-05-24T08:09:35.595Z,101494.75
2023-05-24T08:12:04.932Z,101500.06
2023-05-24T08:14:33.407Z,101495.41
2023-05-24T08:17:03.127Z,101488.03
2023-05-24T08:19:35.938Z,101496.28
2023-05-24T08:22:05.992Z,101489.75
2023-05-24T08:24:34.526Z,101490.72
2023-05-24T08:27:04.393Z,101493.72
2023-05-24T08:29:32.832Z,101494.19
2023-05-24T08:32:04.179Z,101495.94
2023-05-24T08:34:33.550Z,101500.22
2023-05-24T08:37:02.174Z,101494.94
2023-05-24T08:39:30.942Z,101496.81
2023-05-24T08:42:09.503Z,101493.22
2023-05-24T08:44:41.153Z,101491.97
2023-05-24T08:47:14.316Z,101494.66
2023-05-24T08:49:44.239Z,101490.75
2023-05-24T08:52:14.100Z,101498.22
2023-05-24T08:54:43.221Z,101492.66
2023-05-24T08:57:12.217Z,101500.44
2023-05-24T08:59:48.400Z,101494.75
2023-05-24T09:02:18.985Z,101491.38
2023-05-24T09:04:49.636Z,101498.75
2023-05-24T09:07:19.275Z,101499.75
2023-05-24T09:09:48.871Z,101495.94
2023-05-24T09:12:35.569Z,101503.69
2023-05-24T09:15:08.310Z,101500.91
2023-05-24T09:17:40.684Z,101487.19
2023-05-24T09:20:12.688Z,101492.34
2023-05-24T09:22:42.847Z,101499.31
2023-05-24T09:25:13.722Z,101492.97
2023-05-24T09:27:53.071Z,101493.22
2023-05-24T09:30:22.040Z,101496.28
2023-05-24T09:32:59.193Z,101496.41
2023-05-24T09:35:28.591Z,101493.50
2023-05-24T09:38:00.030Z,101482.28
2023-05-24T09:40:29.346Z,101490.75
2023-05-24T09:43:05.180Z,101486.97
2023-05-24T09:45:33.757Z,101475.00
2023-05-24T09:48:07.572Z,101484.84
2023-05-24T09:50:36.414Z,101481.88
2023-05-24T09:53:04.876Z,101489.47
2023-05-24T09:55:37.109Z,101486.63
2023-05-24T09:58:08.185Z,101486.00
2023-05-24T10:00:39.671Z,101486.19
2023-05-24T10:03:11.014Z,101481.72
2023-05-24T10:05:42.950Z,101477.91
2023-05-24T10:08:11.590Z,101475.38
2023-05-24T10:10:40.009Z,101476.09
2023-05-24T10:13:08.705Z,101484.56
2023-05-24T10:15:37.085Z,101487.84
2023-05-24T10:18:10.680Z,101490.09
2023-05-24T10:20:44.073Z,101483.03
2023-05-24T10:23:16.991Z,101496.59
2023-05-24T10:25:48.293Z,101485.19
2023-05-24T10:28:19.930Z,101489.53
2023-05-24T10:30:53.945Z,101491.09
2023-05-24T10:33:24.229Z,101495.09
2023-05-24T10:35:54.970Z,101489.59
2023-05-24T10:38:24.129Z,101499.34
2023-05-24T10:40:52.735Z,101495.38
2023-05-24T10:43:22.509Z,101497.38
2023-05-24T10:45:51.253Z,101492.94
2023-05-24T10:48:42.263Z,101492.25
2023-05-24T10:51:29.283Z,101492.38
2023-05-24T10:53:59.641Z,101484.59
2023-05-24T10:56:28.521Z,101492.19
2023-05-24T10:59:01.006Z,101491.06
2023-05-24T11:01:30.339Z,101487.63
2023-05-24T11:04:07.804Z,101485.53
2023-05-24T11:06:49.363Z,101483.72
2023-05-24T11:09:20.229Z,101482.50
2023-05-24T11:11:50.078Z,101481.59
2023-05-24T11:14:24.371Z,101492.41
2023-05-24T11:16:52.898Z,101493.03
2023-05-24T11:19:21.790Z,101488.94
2023-05-24T11:21:50.803Z,101494.16
2023-05-24T11:24:21.741Z,101488.00
2023-05-24T11:26:51.323Z,101498.84
2023-05-24T11:29:22.280Z,101486.38
2023-05-24T11:31:52.524Z,101491.31
2023-05-24T11:34:21.450Z,101481.53
2023-05-24T11:36:50.012Z,101485.34
2023-05-24T11:39:18.615Z,101481.91
2023-05-24T11:41:48.491Z,101484.81
2023-05-24T11:44:18.174Z,101484.56
2023-05-24T11:46:47.104Z,101483.53
2023-05-24T11:49:16.122Z,101488.25
2023-05-24T11:51:44.831Z,101484.03
2023-05-24T11:54:13.241Z,101481.00
2023-05-24T11:56:41.629Z,101483.59
2023-05-24T11:59:15.633Z,101479.50
2023-05-24T12:01:44.395Z,101480.09
2023-05-24T12:04:12.934Z,101481.91
2023-05-24T12:06:42.811Z,101481.97
2023-05-24T12:09:13.479Z,101472.78
2023-05-24T12:11:42.361Z,101481.94
2023-05-24T12:14:15.448Z,101481.94
2023-05-24T12:16:44.288Z,101486.50
2023-05-24T12:19:31.369Z,101471.13
2023-05-24T12:22:02.093Z,101482.31
2023-05-24T12:24:32.704Z,101482.59
2023-05-24T12:27:03.431Z,101482.56
2023-05-24T12:29:37.695Z,101479.44
2023-05-24T12:32:12.319Z,101477.81
2023-05-24T12:34:42.028Z,101484.47
2023-05-24T12:37:36.621Z,101480.50
2023-05-24T12:40:15.649Z,101474.91
2023-05-24T12:42:45.148Z,101473.81
2023-05-24T12:45:14.924Z,101477.25
2023-05-24T12:47:44.457Z,101471.34
2023-05-24T12:50:12.808Z,101473.53
2023-05-24T12:52:41.148Z,101470.97
2023-05-24T12:55:09.587Z,101461.88
2023-05-24T12:57:38.434Z,101467.75
2023-05-24T13:00:13.207Z,101474.69
2023-05-24T13:02:50.066Z,101464.66
2023-05-24T13:05:19.653Z,101457.03
2023-05-24T13:07:53.325Z,101467.66
2023-05-24T13:10:22.316Z,101449.91
2023-05-24T13:12:51.060Z,101457.56
2023-05-24T13:15:23.125Z,101463.91
2023-05-24T13:17:53.554Z,101465.81
2023-05-24T13:20:24.088Z,101468.13
2023-05-24T13:22:52.556Z,101469.00
2023-05-24T13:25:22.528Z,101467.31
2023-05-24T13:27:51.205Z,101468.72
2023-05-24T13:30:27.321Z,101462.84
2023-05-24T13:32:58.672Z,101471.78
2023-05-24T13:35:27.139Z,101465.16
2023-05-24T13:37:58.013Z,101470.63
2023-05-24T13:40:27.030Z,101469.47
2023-05-24T13:42:56.995Z,101463.56
2023-05-24T13:45:25.543Z,101468.59
2023-05-24T13:47:58.380Z,101462.22
2023-05-24T13:50:28.347Z,101467.84
2023-05-24T13:52:57.154Z,101465.88
2023-05-24T13:55:25.596Z,101473.88
2023-05-24T13:57:55.428Z,101470.16
2023-05-24T14:00:24.268Z,101477.06
2023-05-24T14:02:53.133Z,101462.41
2023-05-24T14:05:26.585Z,101460.00
2023-05-24T14:08:00.263Z,101467.66
2023-05-24T14:10:29.235Z,101466.53
2023-05-24T14:13:16.229Z,101470.16
2023-05-24T14:15:47.244Z,101468.44
2023-05-24T14:18:15.733Z,101472.19
2023-05-24T14:20:44.194Z,101467.06
2023-05-24T14:23:14.487Z,101469.16
2023-05-24T14:25:43.291Z,101468.28
2023-05-24T14:28:12.835Z,101473.44
2023-05-24T14:30:41.959Z,101465.53
2023-05-24T14:33:11.421Z,101466.22
2023-05-24T14:35:40.589Z,101462.63
2023-05-24T14:38:09.756Z,101469.09
2023-05-24T14:40:40.771Z,101466.03
2023-05-24T14:43:10.709Z,101466.03
2023-05-24T14:45:41.282Z,101470.53
2023-05-24T14:48:12.024Z,101469.97
2023-05-24T14:50:41.604Z,101463.06
2023-05-24T14:53:12.191Z,101471.56
2023-05-24T14:55:44.056Z,101467.84
2023-05-24T14:58:13.278Z,101458.59
2023-05-24T15:00:45.622Z,101454.34
2023-05-24T15:03:16.190Z,101459.22
2023-05-24T15:05:44.753Z,101468.22
2023-05-24T15:08:13.787Z,101459.25
2023-05-24T15:10:45.321Z,101465.00
2023-05-24T15:13:14.423Z,101449.50
2023-05-24T15:15:43.298Z,101461.75
2023-05-24T15:18:12.017Z,101447.31
2023-05-24T15:20:41.122Z,101444.28
2023-05-24T15:23:10.888Z,101448.53
2023-05-24T15:25:39.447Z,101439.53
2023-05-24T15:28:12.851Z,101437.88
2023-05-24T15:30:44.126Z,101439.06
2023-05-24T15:33:13.267Z,101443.34
2023-05-24T15:35:42.185Z,101447.38
2023-05-24T15:38:10.586Z,101445.00
2023-05-24T15:40:41.963Z,101449.44
2023-05-24T15:43:12.039Z,101450.97
2023-05-24T15:45:40.637Z,101450.50
2023-05-24T15:48:09.142Z,101447.41
2023-05-24T15:53:12.664Z,101436.53
2023-05-24T15:55:41.181Z,101439.34
2023-05-24T15:58:10.154Z,101442.25
2023-05-24T16:00:39.978Z,101443.75
2023-05-24T16:03:08.426Z,101443.06
2023-05-24T16:05:37.037Z,101446.66
2023-05-24T16:08:05.684Z,101444.25
2023-05-24T16:10:35.722Z,101441.59
2023-05-24T16:13:04.304Z,101447.81
2023-05-24T16:15:39.738Z,101435.09
2023-05-24T16:18:10.395Z,101447.00
2023-05-24T16:20:44.526Z,101443.56
2023-05-24T16:23:13.670Z,101438.19
2023-05-24T16:25:41.992Z,101439.75
2023-05-24T16:28:10.349Z,101440.06
2023-05-24T16:30:38.703Z,101438.72
2023-05-24T16:33:07.266Z,101437.22
2023-05-24T16:35:37.270Z,101432.19
2023-05-24T16:38:05.563Z,101434.13
2023-05-24T16:40:33.898Z,101435.50
2023-05-24T16:43:02.477Z,101435.97
2023-05-24T16:45:30.790Z,101433.69
2023-05-24T16:47:59.320Z,101434.19
2023-05-24T16:50:28.151Z,101428.19
2023-05-24T16:52:57.804Z,101428.88
2023-05-24T16:55:26.143Z,101427.63
2023-05-24T16:57:54.455Z,101427.97
2023-05-24T17:00:23.392Z,101428.19
2023-05-24T17:02:51.908Z,101428.66
2023-05-24T17:05:20.326Z,101430.19
2023-05-24T17:07:48.638Z,101417.31
2023-05-24T17:10:18.941Z,101418.84
2023-05-24T17:12:48.439Z,101418.44
2023-05-24T17:15:16.974Z,101426.19
2023-05-24T17:17:45.560Z,101428.44
2023-05-24T17:20:14.074Z,101428.84
2023-05-24T17:22:42.457Z,101430.94
2023-05-24T17:25:11.401Z,101434.31
2023-05-24T17:27:41.050Z,101431.19
2023-05-24T17:30:10.246Z,101428.22
2023-05-24T17:32:38.707Z,101420.50
2023-05-24T17:35:07.137Z,101423.34
2023-05-24T17:37:35.543Z,101428.34
2023-05-24T17:40:03.897Z,101422.84
2023-05-24T17:42:32.481Z,101419.88
2023-05-24T17:45:02.227Z,101412.00
2023-05-24T17:47:30.798Z,101421.72
2023-05-24T17:50:00.639Z,101421.91
2023-05-24T17:52:29.609Z,101429.19
2023-05-24T17:54:57.911Z,101431.03
2023-05-24T17:57:27.441Z,101432.84
2023-05-24T17:59:56.230Z,101428.56
2023-05-24T18:02:26.573Z,101434.31
2023-05-24T18:04:55.548Z,101434.47
2023-05-24T18:07:24.257Z,101438.50
2023-05-24T18:09:53.079Z,101440.31
2023-05-24T18:12:21.810Z,101435.53
2023-05-24T18:14:50.509Z,101436.66
2023-05-24T18:17:18.939Z,101435.03
2023-05-24T18:19:48.638Z,101443.59
2023-05-24T18:22:17.341Z,101443.47
2023-05-24T18:24:45.837Z,101440.13
2023-05-24T18:27:14.368Z,101439.59
2023-05-24T18:29:42.699Z,101446.63
2023-05-24T18:32:10.991Z,101447.28
2023-05-24T18:34:39.330Z,101444.09
2023-05-24T18:37:09.351Z,101440.31
2023-05-24T18:39:38.387Z,101444.19
2023-05-24T18:42:09.028Z,101452.72
2023-05-24T18:44:37.923Z,101458.81
2023-05-24T18:47:06.498Z,101462.53
2023-05-24T18:49:37.007Z,101462.31
2023-05-24T18:52:12.922Z,101463.34
2023-05-24T18:54:49.783Z,101465.88
2023-05-24T18:57:22.200Z,101461.34
2023-05-24T18:59:54.156Z,101472.41
2023-05-24T19:02:39.181Z,101466.38
2023-05-24T19:05:19.313Z,101473.63
2023-05-24T19:07:48.856Z,101482.66
2023-05-24T19:10:36.274Z,101486.13
2023-05-24T19:13:28.104Z,101489.28
2023-05-24T19:16:00.533Z,101481.69
2023-05-24T19:18:29.421Z,101486.72
2023-05-24T19:21:03.471Z,101491.16
2023-05-24T19:23:32.577Z,101488.94
2023-05-24T19:26:04.702Z,101491.34
2023-05-24T19:28:40.774Z,101482.16
2023-05-24T19:31:11.424Z,101498.88
2023-05-24T19:33:59.274Z,101495.69
2023-05-24T19:36:34.029Z,101490.38
2023-05-24T19:39:06.146Z,101489.97
2023-05-24T19:41:37.548Z,101497.78
2023-05-24T19:44:08.134Z,101500.03
2023-05-24T19:46:37.174Z,101503.41
2023-05-24T19:49:07.103Z,101499.88
2023-05-24T19:51:37.774Z,101509.47
2023-05-24T19:54:11.885Z,101513.34
2023-05-24T19:56:44.336Z,101509.28
2023-05-24T19:59:18.190Z,101513.22
2023-05-24T20:01:46.893Z,101520.06
2023-05-24T20:04:15.770Z,101517.91
2023-05-24T20:06:47.996Z,101526.72
2023-05-24T20:09:18.783Z,101528.66
2023-05-24T20:11:48.248Z,101526.22
2023-05-24T20:14:20.194Z,101527.84
2023-05-24T20:16:58.019Z,101539.91
2023-05-24T20:19:34.333Z,101534.16
2023-05-24T20:22:04.138Z,101533.09
2023-05-24T20:24:37.894Z,101543.78
2023-05-24T20:27:14.848Z,101545.69
2023-05-24T20:29:48.528Z,101535.03
2023-05-24T20:32:23.732Z,101544.34
2023-05-24T20:34:57.842Z,101553.66
2023-05-24T20:37:32.396Z,101551.75
2023-05-24T20:40:04.886Z,101555.00
2023-05-24T20:42:36.002Z,101561.84
2023-05-24T20:45:07.163Z,101561.31
2023-05-24T20:47:35.737Z,101552.28
2023-05-24T20:50:04.595Z,101554.16
2023-05-24T20:52:35.840Z,101559.66
2023-05-24T20:55:08.016Z,101556.34
2023-05-24T20:57:37.164Z,101561.50
2023-05-24T21:00:08.981Z,101557.41
2023-05-24T21:02:38.007Z,101554.91
2023-05-24T21:05:08.833Z,101562.84
2023-05-24T21:07:37.415Z,101560.13
2023-05-24T21:10:06.051Z,101569.44
2023-05-24T21:12:34.476Z,101565.06
2023-05-24T21:15:02.977Z,101579.28
2023-05-24T21:17:32.621Z,101576.28
2023-05-24T21:20:03.396Z,101571.63
2023-05-24T21:22:31.818Z,101582.03
2023-05-24T21:25:00.154Z,101578.75
2023-05-24T21:27:28.619Z,101577.66
2023-05-24T21:29:56.916Z,101571.63
2023-05-24T21:32:25.549Z,101584.22
2023-05-24T21:34:56.508Z,101581.22
2023-05-24T21:37:30.787Z,101583.94
2023-05-24T21:40:00.835Z,101577.66
2023-05-24T21:42:29.755Z,101583.69
2023-05-24T21:45:07.485Z,101584.81
2023-05-24T21:47:36.926Z,101585.38
2023-05-24T21:50:07.802Z,101583.44
2023-05-24T21:52:36.347Z,101591.38
2023-05-24T21:55:13.081Z,101587.56
2023-05-24T21:57:41.775Z,101592.47
2023-05-24T22:00:12.262Z,101600.09
2023-05-24T22:02:47.571Z,101601.75
2023-05-24T22:05:20.242Z,101604.19
2023-05-24T22:07:58.740Z,101603.59
2023-05-24T22:10:27.858Z,101604.94
2023-05-24T22:13:24.446Z,101606.03
2023-05-24T22:15:53.718Z,101610.97
2023-05-24T22:18:22.164Z,101610.44
2023-05-24T22:20:52.870Z,101611.03
2023-05-24T22:23:21.614Z,101620.03
2023-05-24T22:25:50.111Z,101610.25
2023-05-24T22:28:19.875Z,101617.09
2023-05-24T22:30:48.413Z,101615.72
2023-05-24T22:33:16.712Z,101617.09
2023-05-24T22:35:45.163Z,101620.06
2023-05-24T22:38:15.170Z,101616.47
2023-05-24T22:40:44.171Z,101618.69
2023-05-24T22:43:12.668Z,101616.22
2023-05-24T22:45:41.173Z,101610.44
2023-05-24T22:48:10.370Z,101615.88
2023-05-24T22:50:39.195Z,101619.09
2023-05-24T22:53:09.080Z,101614.41
2023-05-24T22:55:38.737Z,101622.84
2023-05-24T22:58:07.221Z,101614.31
2023-05-24T23:00:35.563Z,101614.03
2023-05-24T23:03:04.076Z,101618.91
2023-05-24T23:05:32.455Z,101622.78
2023-05-24T23:08:03.476Z,101630.16
2023-05-24T23:10:31.848Z,101621.69
2023-05-24T23:13:01.456Z,101633.19
2023-05-24T23:15:31.894Z,101637.56
2023-05-24T23:18:00.583Z,101628.78
2023-05-24T23:20:29.533Z,101634.75
2023-05-24T23:22:58.890Z,101630.31
2023-05-24T23:25:27.203Z,101631.06
2023-05-24T23:27:55.759Z,101636.75
2023-05-24T23:30:25.503Z,101631.88
2023-05-24T23:32:53.735Z,101630.22
2023-05-24T23:35:22.020Z,101631.88
2023-05-24T23:37:50.280Z,101630.50
2023-05-24T23:40:18.579Z,101636.22
2023-05-24T23:42:46.894Z,101629.63
2023-05-24T23:45:16.436Z,101629.63
2023-05-24T23:47:46.469Z,101636.75
2023-05-24T23:50:17.404Z,101629.94
2023-05-24T23:53:00.157Z,101638.09
2023-05-24T23:55:28.535Z,101638.91
2023-05-24T23:57:56.809Z,101641.63
